createdAt,value
2022-12-15T00:00:47.996Z,37.13
2022-12-15T00:03:54.410Z,32.37
2022-12-15T00:07:00.771Z,30.87
2022-12-15T00:10:07.223Z,28.03
2022-12-15T00:13:13.409Z,27.50
2022-12-15T00:16:19.545Z,32.60
2022-12-15T00:19:25.705Z,29.70
2022-12-15T00:22:31.628Z,35.60
2022-12-15T00:25:37.878Z,31.17
2022-12-15T00:28:43.829Z,28.47
2022-12-15T00:31:50.112Z,38.50
2022-12-15T00:34:56.310Z,30.37
2022-12-15T00:38:02.418Z,36.53
2022-12-15T00:40:51.369Z,29.80
2022-12-15T00:43:39.127Z,31.53
2022-12-15T00:46:45.086Z,33.03
2022-12-15T00:49:51.267Z,31.67
2022-12-15T00:52:57.395Z,34.30
2022-12-15T00:56:03.672Z,31.57
2022-12-15T00:59:10.318Z,30.63
2022-12-15T01:02:16.576Z,35.03
2022-12-15T01:05:22.929Z,29.03
2022-12-15T01:08:29.317Z,31.23
2022-12-15T01:11:35.480Z,31.50
2022-12-15T01:14:41.909Z,40.53
2022-12-15T01:17:47.831Z,35.77
2022-12-15T01:20:35.182Z,34.33
2022-12-15T01:23:22.522Z,29.67
2022-12-15T01:26:09.909Z,32.90
2022-12-15T01:28:57.280Z,37.43
2022-12-15T01:31:44.680Z,33.67
2022-12-15T01:34:37.190Z,39.93
2022-12-15T01:37:24.522Z,30.13
2022-12-15T01:40:35.156Z,33.20
2022-12-15T01:43:27.361Z,36.40
2022-12-15T01:46:17.657Z,32.67
2022-12-15T01:49:14.714Z,33.63
2022-12-15T01:52:03.068Z,32.07
2022-12-15T01:54:51.392Z,29.07
2022-12-15T01:57:40.498Z,31.20
2022-12-15T02:00:28.098Z,44.33
2022-12-15T02:03:15.604Z,28.10
2022-12-15T02:06:03.542Z,34.83
2022-12-15T02:08:53.005Z,31.90
2022-12-15T02:11:58.425Z,29.10
2022-12-15T02:14:58.237Z,34.57
2022-12-15T02:17:48.648Z,29.47
2022-12-15T02:20:48.067Z,28.93
2022-12-15T02:23:35.498Z,29.23
2022-12-15T02:26:22.917Z,28.67
2022-12-15T02:29:19.425Z,32.30
2022-12-15T02:32:14.247Z,28.27
2022-12-15T02:35:04.038Z,31.60
2022-12-15T02:37:51.869Z,27.60
2022-12-15T02:40:39.881Z,31.63
2022-12-15T02:43:28.142Z,26.97
2022-12-15T02:46:21.238Z,31.17
2022-12-15T02:49:23.622Z,27.27
2022-12-15T02:52:22.081Z,28.17
2022-12-15T02:55:13.157Z,27.03
2022-12-15T02:58:02.721Z,29.27
2022-12-15T03:01:04.782Z,25.60
2022-12-15T03:03:52.595Z,23.53
2022-12-15T03:06:40.388Z,28.87
2022-12-15T03:09:27.740Z,23.10
2022-12-15T03:12:15.102Z,24.83
2022-12-15T03:15:02.487Z,20.83
2022-12-15T03:17:49.842Z,27.43
2022-12-15T03:20:37.185Z,23.43
2022-12-15T03:23:24.547Z,21.90
2022-12-15T03:26:12.004Z,22.07
2022-12-15T03:28:59.333Z,21.50
2022-12-15T03:31:49.981Z,21.77
2022-12-15T03:34:37.670Z,20.23
2022-12-15T03:37:25.010Z,26.03
2022-12-15T03:40:16.177Z,22.33
2022-12-15T03:43:03.524Z,21.03
2022-12-15T03:45:50.927Z,26.00
2022-12-15T03:48:38.341Z,28.57
2022-12-15T03:51:25.718Z,24.93
2022-12-15T03:54:13.936Z,23.20
2022-12-15T03:57:01.938Z,25.83
2022-12-15T03:59:49.364Z,20.87
2022-12-15T04:02:36.749Z,24.87
2022-12-15T04:05:25.648Z,25.80
2022-12-15T04:08:13.096Z,26.03
2022-12-15T04:11:00.492Z,20.17
2022-12-15T04:13:47.923Z,24.07
2022-12-15T04:16:35.316Z,22.60
2022-12-15T04:19:41.686Z,19.27
2022-12-15T04:22:29.010Z,22.57
2022-12-15T04:25:39.699Z,22.03
2022-12-15T04:28:46.006Z,19.93
2022-12-15T04:31:53.350Z,20.77
2022-12-15T04:34:59.538Z,23.13
2022-12-15T04:38:05.944Z,22.90
2022-12-15T04:41:12.323Z,18.53
2022-12-15T04:44:18.679Z,23.23
2022-12-15T04:47:25.078Z,18.53
2022-12-15T04:50:31.350Z,22.97
2022-12-15T04:53:37.840Z,22.77
2022-12-15T04:56:43.825Z,20.90
2022-12-15T04:59:49.801Z,24.13
2022-12-15T05:02:55.913Z,22.63
2022-12-15T05:06:02.237Z,22.27
2022-12-15T05:09:08.398Z,22.97
2022-12-15T05:12:14.616Z,24.70
2022-12-15T05:15:20.872Z,23.40
2022-12-15T05:18:27.077Z,23.47
2022-12-15T05:21:33.303Z,21.00
2022-12-15T05:24:39.264Z,23.30
2022-12-15T05:27:45.403Z,24.30
2022-12-15T05:30:51.651Z,20.90
2022-12-15T05:33:39.311Z,23.13
2022-12-15T05:36:26.678Z,23.13
2022-12-15T05:39:14.412Z,23.80
2022-12-15T05:42:01.902Z,22.73
2022-12-15T05:44:50.087Z,23.13
2022-12-15T05:47:39.329Z,21.67
2022-12-15T05:50:27.862Z,26.77
2022-12-15T05:53:15.214Z,27.57
2022-12-15T05:56:03.717Z,28.15
2022-12-15T05:58:51.417Z,24.70
2022-12-15T06:01:39.345Z,25.43
2022-12-15T06:04:27.160Z,26.77
2022-12-15T06:07:15.113Z,21.20
2022-12-15T06:10:02.910Z,24.00
2022-12-15T06:12:50.793Z,28.30
2022-12-15T06:15:38.415Z,26.27
2022-12-15T06:18:26.548Z,23.30
2022-12-15T06:21:18.027Z,29.13
2022-12-15T06:24:06.128Z,26.00
2022-12-15T06:26:53.469Z,28.73
2022-12-15T06:29:40.794Z,30.47
2022-12-15T06:32:28.118Z,23.13
2022-12-15T06:35:15.530Z,23.97
2022-12-15T06:38:02.884Z,26.73
2022-12-15T06:41:00.080Z,22.60
2022-12-15T06:43:51.610Z,25.40
2022-12-15T06:46:38.993Z,24.47
2022-12-15T06:49:26.349Z,25.17
2022-12-15T06:52:14.452Z,23.97
2022-12-15T06:55:02.251Z,28.40
2022-12-15T06:57:49.633Z,25.00
2022-12-15T07:00:37.563Z,29.30
2022-12-15T07:03:25.128Z,24.03
2022-12-15T07:06:15.312Z,28.70
2022-12-15T07:09:02.730Z,25.57
2022-12-15T07:11:51.247Z,23.83
2022-12-15T07:14:38.589Z,30.30
2022-12-15T07:17:26.151Z,28.63
2022-12-15T07:20:13.873Z,23.93
2022-12-15T07:23:03.697Z,22.93
2022-12-15T07:25:51.082Z,25.33
2022-12-15T07:28:38.790Z,24.33
2022-12-15T07:31:26.309Z,25.00
2022-12-15T07:34:13.743Z,24.83
2022-12-15T07:37:01.699Z,25.50
2022-12-15T07:39:49.037Z,26.13
2022-12-15T07:42:36.757Z,25.43
2022-12-15T07:45:24.135Z,25.50
2022-12-15T07:48:11.478Z,26.40
2022-12-15T07:51:07.266Z,29.13
2022-12-15T07:53:56.582Z,24.40
2022-12-15T07:56:44.179Z,27.50
2022-12-15T07:59:37.807Z,29.13
2022-12-15T08:02:25.239Z,26.00
2022-12-15T08:05:12.694Z,25.27
2022-12-15T08:08:00.053Z,35.33
2022-12-15T08:10:47.403Z,29.20
2022-12-15T08:16:42.644Z,25.37
2022-12-15T08:19:30.732Z,24.33
2022-12-15T08:22:18.063Z,27.67
2022-12-15T08:25:05.591Z,22.50
2022-12-15T08:27:53.232Z,25.30
2022-12-15T08:30:41.039Z,25.10
2022-12-15T08:33:28.804Z,28.10
2022-12-15T08:36:17.595Z,28.33
2022-12-15T08:39:05.077Z,22.47
2022-12-15T08:41:52.443Z,25.17
2022-12-15T08:44:40.070Z,25.23
2022-12-15T08:47:27.410Z,27.73
2022-12-15T08:50:14.777Z,27.40
2022-12-15T08:53:29.702Z,22.43
2022-12-15T08:56:14.017Z,22.60
2022-12-15T08:59:02.335Z,29.77
2022-12-15T09:01:49.816Z,29.57
2022-12-15T09:04:37.868Z,27.43
2022-12-15T09:07:25.303Z,26.73
2022-12-15T09:10:12.670Z,26.47
2022-12-15T09:13:00.031Z,26.13
2022-12-15T09:16:11.476Z,23.33
2022-12-15T09:18:56.344Z,26.23
2022-12-15T09:21:45.281Z,25.20
2022-12-15T09:24:35.366Z,23.60
2022-12-15T09:27:23.604Z,29.80
2022-12-15T09:30:11.119Z,30.70
2022-12-15T09:32:58.546Z,32.80
2022-12-15T09:35:52.780Z,34.27
2022-12-15T09:38:41.419Z,22.80
2022-12-15T09:41:33.219Z,24.27
2022-12-15T09:44:22.261Z,27.57
2022-12-15T09:47:17.057Z,28.87
2022-12-15T09:50:06.308Z,28.03
2022-12-15T09:53:00.987Z,20.60
2022-12-15T09:55:49.905Z,24.13
2022-12-15T09:58:44.183Z,29.47
2022-12-15T10:01:48.468Z,25.53
2022-12-15T10:04:59.184Z,31.10
2022-12-15T10:07:50.597Z,29.47
2022-12-15T10:10:58.289Z,27.27
2022-12-15T10:13:51.306Z,26.50
2022-12-15T10:16:41.924Z,25.90
2022-12-15T10:19:32.433Z,27.27
2022-12-15T10:22:31.441Z,25.77
2022-12-15T10:25:27.616Z,25.93
2022-12-15T10:28:20.330Z,24.43
2022-12-15T10:31:07.739Z,25.30
2022-12-15T10:33:58.359Z,24.50
2022-12-15T10:36:50.603Z,24.63
2022-12-15T10:39:39.687Z,22.57
2022-12-15T10:42:27.670Z,25.40
2022-12-15T10:45:33.744Z,25.27
2022-12-15T10:48:21.261Z,30.77
2022-12-15T10:51:19.776Z,26.93
2022-12-15T10:54:10.305Z,24.87
2022-12-15T10:56:59.898Z,27.57
2022-12-15T10:59:50.347Z,26.73
2022-12-15T11:02:38.718Z,25.80
2022-12-15T11:05:28.130Z,25.33
2022-12-15T11:08:18.251Z,24.53
2022-12-15T11:11:45.165Z,25.20
2022-12-15T11:14:53.890Z,22.37
2022-12-15T11:17:42.793Z,28.33
2022-12-15T11:20:40.412Z,23.97
2022-12-15T11:23:36.001Z,25.23
2022-12-15T11:26:42.331Z,25.40
2022-12-15T11:29:34.568Z,27.07
2022-12-15T11:32:24.548Z,28.30
2022-12-15T11:35:16.416Z,22.80
2022-12-15T11:38:22.766Z,23.10
2022-12-15T11:41:28.968Z,26.83
2022-12-15T11:44:25.333Z,28.57
2022-12-15T11:47:31.464Z,28.50
2022-12-15T11:50:39.713Z,24.73
2022-12-15T11:53:39.382Z,23.53
2022-12-15T11:56:45.501Z,23.53
2022-12-15T11:59:42.148Z,24.30
2022-12-15T12:02:32.688Z,20.57
2022-12-15T12:05:20.183Z,23.87
2022-12-15T12:08:16.675Z,22.60
2022-12-15T12:11:04.053Z,19.47
2022-12-15T12:13:59.541Z,22.37
2022-12-15T12:17:02.212Z,24.57
2022-12-15T12:19:52.609Z,21.27
2022-12-15T12:22:43.391Z,19.90
2022-12-15T12:25:33.857Z,21.63
2022-12-15T12:28:27.986Z,19.27
2022-12-15T12:31:38.827Z,23.43
2022-12-15T12:34:51.495Z,22.97
2022-12-15T12:37:43.678Z,23.57
2022-12-15T12:40:31.621Z,29.37
2022-12-15T12:43:33.415Z,23.60
2022-12-15T12:46:25.660Z,24.97
2022-12-15T12:49:31.350Z,25.53
2022-12-15T12:52:38.940Z,23.00
2022-12-15T12:55:35.872Z,20.07
2022-12-15T12:58:32.687Z,26.35
2022-12-15T13:01:33.930Z,21.17
2022-12-15T13:04:30.387Z,22.85
2022-12-15T13:07:31.636Z,17.87
2022-12-15T13:10:20.371Z,23.57
2022-12-15T13:13:36.373Z,25.50
2022-12-15T13:16:27.850Z,18.43
2022-12-15T13:19:15.358Z,19.30
2022-12-15T13:22:03.131Z,23.10
2022-12-15T13:24:52.001Z,18.67
2022-12-15T13:27:40.624Z,18.13
2022-12-15T13:30:28.348Z,19.23
2022-12-15T13:33:18.897Z,20.83
2022-12-15T13:36:06.340Z,20.63
2022-12-15T13:38:56.731Z,17.43
2022-12-15T13:44:58.994Z,20.97
2022-12-15T13:47:51.665Z,21.17
2022-12-15T13:50:51.324Z,21.27
2022-12-15T13:53:51.810Z,21.67
2022-12-15T13:56:46.426Z,19.73
2022-12-15T13:59:33.750Z,17.73
2022-12-15T14:02:29.112Z,20.07
2022-12-15T14:05:20.964Z,18.17
2022-12-15T14:08:11.255Z,19.40
2022-12-15T14:11:00.138Z,18.80
2022-12-15T14:13:52.345Z,20.70
2022-12-15T14:16:41.884Z,18.23
2022-12-15T14:19:42.770Z,19.97
2022-12-15T14:22:30.691Z,17.93
2022-12-15T14:25:36.108Z,18.53
2022-12-15T14:28:29.821Z,18.57
2022-12-15T14:31:20.227Z,20.17
2022-12-15T14:34:09.466Z,17.40
2022-12-15T14:36:58.614Z,14.83
2022-12-15T14:39:47.648Z,17.77
2022-12-15T14:42:38.642Z,19.47
2022-12-15T14:45:27.564Z,18.20
2022-12-15T14:51:25.963Z,20.13
2022-12-15T14:54:49.020Z,20.17
2022-12-15T14:57:41.898Z,18.57
2022-12-15T15:00:31.569Z,20.53
2022-12-15T15:03:16.031Z,17.30
2022-12-15T15:06:14.695Z,18.30
2022-12-15T15:09:20.432Z,18.70
2022-12-15T15:12:09.143Z,16.40
2022-12-15T15:14:59.035Z,21.70
2022-12-15T15:17:49.918Z,18.27
2022-12-15T15:20:37.741Z,14.93
2022-12-15T15:23:25.183Z,19.55
2022-12-15T15:26:17.025Z,22.93
2022-12-15T15:29:05.382Z,19.03
2022-12-15T15:31:54.187Z,16.60
2022-12-15T15:34:41.526Z,16.63
2022-12-15T15:37:29.222Z,22.33
2022-12-15T15:40:17.603Z,17.40
2022-12-15T15:43:12.439Z,18.47
2022-12-15T15:46:02.733Z,15.70
2022-12-15T15:48:58.191Z,16.70
2022-12-15T15:51:45.697Z,19.13
2022-12-15T15:54:35.862Z,15.70
2022-12-15T15:57:23.260Z,21.47
2022-12-15T16:00:15.752Z,19.43
2022-12-15T16:03:03.775Z,21.23
2022-12-15T16:05:51.745Z,21.43
2022-12-15T16:08:39.096Z,18.03
2022-12-15T16:11:28.467Z,17.57
2022-12-15T16:14:16.613Z,19.67
2022-12-15T16:17:03.980Z,26.53
2022-12-15T16:19:51.490Z,25.43
2022-12-15T16:22:39.513Z,26.73
2022-12-15T16:25:36.624Z,23.00
2022-12-15T16:28:30.611Z,21.70
2022-12-15T16:31:28.600Z,24.37
2022-12-15T16:34:16.919Z,22.87
2022-12-15T16:37:04.592Z,25.23
2022-12-15T16:39:52.239Z,21.63
2022-12-15T16:42:39.615Z,21.77
2022-12-15T16:45:28.274Z,22.67
2022-12-15T16:48:16.041Z,34.70
2022-12-15T16:51:06.350Z,51.13
2022-12-15T16:53:53.694Z,58.93
2022-12-15T16:56:42.550Z,33.47
2022-12-15T16:59:34.633Z,27.37
2022-12-15T17:02:28.234Z,21.77
2022-12-15T17:05:15.924Z,20.47
2022-12-15T17:08:05.008Z,20.53
2022-12-15T17:10:52.734Z,25.13
2022-12-15T17:13:45.581Z,20.67
2022-12-15T17:16:33.527Z,18.47
2022-12-15T17:19:21.530Z,23.40
2022-12-15T17:22:12.688Z,22.37
2022-12-15T17:25:00.041Z,19.40
2022-12-15T17:27:49.137Z,18.53
2022-12-15T17:30:36.603Z,18.37
2022-12-15T17:33:27.834Z,21.73
2022-12-15T17:36:20.791Z,21.70
2022-12-15T17:39:10.775Z,20.47
2022-12-15T17:42:00.551Z,21.00
2022-12-15T17:44:49.435Z,21.27
2022-12-15T17:47:39.243Z,21.63
2022-12-15T17:50:26.588Z,22.92
2022-12-15T17:53:14.087Z,26.33
2022-12-15T17:56:01.445Z,21.33
2022-12-15T17:58:48.845Z,22.17
2022-12-15T18:01:36.326Z,23.60
2022-12-15T18:04:23.830Z,18.70
2022-12-15T18:07:15.890Z,22.87
2022-12-15T18:10:03.296Z,19.47
2022-12-15T18:12:50.667Z,23.50
2022-12-15T18:15:38.283Z,22.47
2022-12-15T18:18:26.153Z,17.00
2022-12-15T18:21:15.271Z,19.83
2022-12-15T18:24:03.060Z,21.77
2022-12-15T18:26:50.464Z,18.87
2022-12-15T18:29:37.909Z,20.57
2022-12-15T18:32:26.435Z,21.30
2022-12-15T18:35:15.080Z,19.80
2022-12-15T18:38:07.318Z,22.03
2022-12-15T18:40:57.054Z,28.10
2022-12-15T18:43:45.122Z,27.77
2022-12-15T18:46:32.500Z,25.07
2022-12-15T18:49:19.937Z,23.03
2022-12-15T18:52:13.634Z,27.70
2022-12-15T18:55:02.027Z,19.63
2022-12-15T18:57:50.681Z,21.43
2022-12-15T19:00:39.379Z,21.00
2022-12-15T19:03:27.027Z,24.13
2022-12-15T19:06:19.388Z,22.33
2022-12-15T19:09:15.034Z,18.53
2022-12-15T19:12:17.653Z,17.90
2022-12-15T19:15:07.447Z,17.97
2022-12-15T19:18:14.169Z,18.30
2022-12-15T19:21:30.067Z,19.80
2022-12-15T19:24:18.821Z,20.90
2022-12-15T19:27:09.891Z,21.63
2022-12-15T19:29:57.282Z,17.57
2022-12-15T19:32:45.025Z,20.97
2022-12-15T19:35:33.089Z,25.57
2022-12-15T19:38:27.368Z,23.97
2022-12-15T19:41:15.921Z,22.27
2022-12-15T19:44:03.287Z,24.67
2022-12-15T19:46:50.716Z,19.00
2022-12-15T19:49:38.097Z,22.10
2022-12-15T19:52:25.545Z,28.77
2022-12-15T19:55:21.196Z,25.33
2022-12-15T19:58:26.918Z,24.10
2022-12-15T20:01:16.375Z,24.73
2022-12-15T20:04:03.850Z,25.70
2022-12-15T20:06:51.256Z,24.57
2022-12-15T20:09:38.686Z,24.00
2022-12-15T20:12:27.240Z,29.60
2022-12-15T20:15:19.184Z,24.10
2022-12-15T20:18:06.704Z,27.63
2022-12-15T20:20:54.133Z,22.60
2022-12-15T20:23:47.732Z,27.37
2022-12-15T20:26:35.838Z,26.43
2022-12-15T20:29:28.500Z,33.83
2022-12-15T20:32:17.732Z,30.93
2022-12-15T20:35:05.340Z,28.57
2022-12-15T20:37:52.765Z,26.53
2022-12-15T20:40:40.187Z,27.83
2022-12-15T20:43:30.926Z,30.53
2022-12-15T20:46:20.661Z,29.17
2022-12-15T20:49:15.233Z,31.40
2022-12-15T20:52:03.617Z,26.27
2022-12-15T20:54:51.369Z,28.10
2022-12-15T20:57:38.751Z,29.97
2022-12-15T21:00:26.252Z,29.90
2022-12-15T21:03:21.078Z,27.23
2022-12-15T21:06:09.395Z,29.60
2022-12-15T21:09:12.890Z,29.87
2022-12-15T21:12:03.167Z,28.67
2022-12-15T21:14:55.491Z,23.90
2022-12-15T21:17:43.081Z,32.63
2022-12-15T21:20:30.454Z,28.07
2022-12-15T21:23:41.119Z,27.13
2022-12-15T21:26:30.130Z,27.13
2022-12-15T21:29:18.707Z,25.73
2022-12-15T21:32:06.060Z,29.87
2022-12-15T21:34:53.403Z,22.77
2022-12-15T21:37:43.356Z,25.37
2022-12-15T21:40:48.635Z,25.03
2022-12-15T21:43:36.413Z,23.97
2022-12-15T21:46:28.415Z,26.80
2022-12-15T21:49:20.366Z,28.43
2022-12-15T21:52:12.572Z,24.63
2022-12-15T21:54:59.916Z,26.03
2022-12-15T21:57:47.294Z,29.60
2022-12-15T22:00:34.614Z,24.87
2022-12-15T22:03:22.163Z,25.90
2022-12-15T22:06:17.004Z,26.00
2022-12-15T22:09:04.693Z,28.00
2022-12-15T22:11:53.722Z,27.03
2022-12-15T22:14:41.114Z,27.53
2022-12-15T22:17:28.707Z,30.33
2022-12-15T22:20:16.190Z,28.57
2022-12-15T22:23:03.513Z,25.27
2022-12-15T22:25:54.069Z,26.60
2022-12-15T22:28:42.047Z,29.13
2022-12-15T22:31:29.786Z,30.23
2022-12-15T22:34:18.988Z,26.37
2022-12-15T22:37:06.331Z,27.33
2022-12-15T22:39:53.672Z,23.77
2022-12-15T22:42:44.539Z,24.50
2022-12-15T22:45:31.851Z,25.57
2022-12-15T22:48:20.659Z,23.67
2022-12-15T22:51:08.378Z,23.83
2022-12-15T22:53:55.706Z,24.97
2022-12-15T22:56:43.078Z,23.47
2022-12-15T22:59:51.886Z,26.13
2022-12-15T23:02:41.387Z,23.57
2022-12-15T23:05:28.962Z,26.80
2022-12-15T23:08:16.331Z,23.27
2022-12-15T23:11:22.730Z,23.17
2022-12-15T23:14:14.286Z,25.83
2022-12-15T23:17:02.902Z,24.87
2022-12-15T23:19:50.289Z,29.03
2022-12-15T23:22:37.625Z,30.00
2022-12-15T23:25:24.991Z,35.83
2022-12-15T23:28:12.326Z,28.60
2022-12-15T23:31:00.206Z,28.13
2022-12-15T23:33:47.604Z,25.33
2022-12-15T23:36:35.020Z,23.80
2022-12-15T23:39:22.388Z,24.37
2022-12-15T23:42:11.577Z,23.63
2022-12-15T23:44:58.995Z,27.07
2022-12-15T23:47:46.369Z,25.10
2022-12-15T23:50:33.856Z,23.90
2022-12-15T23:53:21.203Z,24.33
2022-12-15T23:56:16.247Z,28.93
2022-12-15T23:59:03.590Z,25.50
